Terminal Aerodrome Forecast
Issued by NWS

Home | Current Version | Previous Version | Text Only | Print | Product List | Glossary On
Versions: 1 2 3 4 5 6 7 8 9 10 11 12 13 14 15 16 17
000
FTUS46 KLOX 291700
TAFLGB
TAF
KLGB 291735Z 2918/3018 VRB03KT P6SM SCT150 SCT200
     FM292000 20008KT P6SM SCT150 SCT200
     FM292300 30008KT P6SM SCT150 SCT200
     FM300500 VRB03KT P6SM SCT150 BKN200
     FM301000 VRB03KT 6SM BR SCT007 BKN150=

USA.gov is the U.S. government's official web portal to all federal, state and local government web resources and services.